sensor_id;sensor_type;location;lat;lon;timestamp;pressure;altitude;pressure_sealevel;temperature;humidity
49178;BME280;35016;55.674;37.468;2023-04-24T00:01:27;99045.97;;;12.25;35.16
49178;BME280;35016;55.674;37.468;2023-04-24T00:03:56;99044.63;;;12.22;35.17
49178;BME280;35016;55.674;37.468;2023-04-24T00:06:26;99046.53;;;12.22;35.25
49178;BME280;35016;55.674;37.468;2023-04-24T00:09:04;99040.56;;;12.20;35.61
49178;BME280;35016;55.674;37.468;2023-04-24T00:11:31;99040.28;;;12.21;35.18
49178;BME280;35016;55.674;37.468;2023-04-24T00:13:58;99037.88;;;12.20;35.54
49178;BME280;35016;55.674;37.468;2023-04-24T00:16:25;99041.16;;;12.17;35.28
49178;BME280;35016;55.674;37.468;2023-04-24T00:18:53;99046.88;;;12.15;35.66
49178;BME280;35016;55.674;37.468;2023-04-24T00:21:20;99044.69;;;12.12;35.53
49178;BME280;35016;55.674;37.468;2023-04-24T00:23:48;99041.16;;;12.12;35.30
49178;BME280;35016;55.674;37.468;2023-04-24T00:26:15;99042.25;;;12.10;35.77
49178;BME280;35016;55.674;37.468;2023-04-24T00:28:42;99035.75;;;12.06;35.53
49178;BME280;35016;55.674;37.468;2023-04-24T00:31:09;99042.56;;;12.04;35.64
49178;BME280;35016;55.674;37.468;2023-04-24T00:33:36;99043.41;;;11.99;35.42
49178;BME280;35016;55.674;37.468;2023-04-24T00:36:03;99031.22;;;11.92;36.00
49178;BME280;35016;55.674;37.468;2023-04-24T00:38:30;99040.16;;;11.97;35.91
49178;BME280;35016;55.674;37.468;2023-04-24T00:40:58;99046.69;;;11.96;36.10
49178;BME280;35016;55.674;37.468;2023-04-24T00:43:25;99039.38;;;11.92;35.49
49178;BME280;35016;55.674;37.468;2023-04-24T00:45:53;99031.22;;;11.92;36.19
49178;BME280;35016;55.674;37.468;2023-04-24T00:48:21;99044.00;;;11.91;36.04
49178;BME280;35016;55.674;37.468;2023-04-24T00:50:48;99038.84;;;11.90;35.62
49178;BME280;35016;55.674;37.468;2023-04-24T00:53:15;99035.88;;;11.86;36.05
49178;BME280;35016;55.674;37.468;2023-04-24T00:55:42;99047.25;;;11.83;35.82
49178;BME280;35016;55.674;37.468;2023-04-24T00:58:09;99043.22;;;11.81;35.64
49178;BME280;35016;55.674;37.468;2023-04-24T01:00:37;99039.16;;;11.78;35.60
49178;BME280;35016;55.674;37.468;2023-04-24T01:03:05;99035.34;;;11.74;36.53
49178;BME280;35016;55.674;37.468;2023-04-24T01:05:33;99043.50;;;11.69;36.32
49178;BME280;35016;55.674;37.468;2023-04-24T01:08:01;99041.09;;;11.62;36.38
49178;BME280;35016;55.674;37.468;2023-04-24T01:10:31;99048.44;;;11.57;36.80
49178;BME280;35016;55.674;37.468;2023-04-24T01:12:59;99052.78;;;11.53;37.14
49178;BME280;35016;55.674;37.468;2023-04-24T01:15:26;99041.94;;;11.53;36.38
49178;BME280;35016;55.674;37.468;2023-04-24T01:17:53;99039.50;;;11.51;37.07
49178;BME280;35016;55.674;37.468;2023-04-24T01:20:21;99038.94;;;11.49;36.71
49178;BME280;35016;55.674;37.468;2023-04-24T01:22:48;99035.16;;;11.50;36.80
49178;BME280;35016;55.674;37.468;2023-04-24T01:25:15;99031.34;;;11.51;35.96
49178;BME280;35016;55.674;37.468;2023-04-24T01:27:43;99043.03;;;11.46;36.89
49178;BME280;35016;55.674;37.468;2023-04-24T01:30:11;99036.81;;;11.41;36.71
49178;BME280;35016;55.674;37.468;2023-04-24T01:32:38;99025.97;;;11.36;36.89
49178;BME280;35016;55.674;37.468;2023-04-24T01:35:07;99033.59;;;11.34;36.46
49178;BME280;35016;55.674;37.468;2023-04-24T01:37:34;99028.72;;;11.31;37.48
49178;BME280;35016;55.674;37.468;2023-04-24T01:40:05;99026.56;;;11.28;36.95
49178;BME280;35016;55.674;37.468;2023-04-24T01:42:34;99025.97;;;11.26;37.70
49178;BME280;35016;55.674;37.468;2023-04-24T01:45:03;99041.75;;;11.18;36.95
49178;BME280;35016;55.674;37.468;2023-04-24T01:47:31;99029.00;;;11.19;37.12
49178;BME280;35016;55.674;37.468;2023-04-24T01:49:59;99021.13;;;11.12;37.46
49178;BME280;35016;55.674;37.468;2023-04-24T01:52:26;99024.41;;;11.09;37.22
49178;BME280;35016;55.674;37.468;2023-04-24T01:54:54;99027.94;;;11.05;37.41
49178;BME280;35016;55.674;37.468;2023-04-24T01:57:22;99025.22;;;11.05;37.25
49178;BME280;35016;55.674;37.468;2023-04-24T01:59:50;99029.56;;;11.06;37.02
49178;BME280;35016;55.674;37.468;2023-04-24T02:02:18;99027.13;;;11.04;37.46
49178;BME280;35016;55.674;37.468;2023-04-24T02:04:45;99025.78;;;11.02;37.87
49178;BME280;35016;55.674;37.468;2023-04-24T02:07:12;99031.47;;;11.00;37.53
49178;BME280;35016;55.674;37.468;2023-04-24T02:09:39;99029.84;;;10.99;37.50
49178;BME280;35016;55.674;37.468;2023-04-24T02:12:06;99030.66;;;11.00;37.52
49178;BME280;35016;55.674;37.468;2023-04-24T02:14:34;99030.91;;;10.98;37.30
49178;BME280;35016;55.674;37.468;2023-04-24T02:17:02;99030.38;;;10.96;37.23
49178;BME280;35016;55.674;37.468;2023-04-24T02:19:29;99018.44;;;10.92;37.70
49178;BME280;35016;55.674;37.468;2023-04-24T02:21:56;99022.25;;;10.96;37.05
49178;BME280;35016;55.674;37.468;2023-04-24T02:24:23;99023.31;;;10.95;37.60
49178;BME280;35016;55.674;37.468;2023-04-24T02:26:50;99026.84;;;10.96;37.56
49178;BME280;35016;55.674;37.468;2023-04-24T02:29:17;99033.38;;;10.95;37.36
49178;BME280;35016;55.674;37.468;2023-04-24T02:31:44;99033.63;;;10.98;37.85
49178;BME280;35016;55.674;37.468;2023-04-24T02:34:14;99035.53;;;11.03;37.54
49178;BME280;35016;55.674;37.468;2023-04-24T02:36:41;99032.56;;;11.04;37.58
49178;BME280;35016;55.674;37.468;2023-04-24T02:39:08;99042.06;;;11.07;38.10
49178;BME280;35016;55.674;37.468;2023-04-24T02:41:35;99036.34;;;11.08;37.85
49178;BME280;35016;55.674;37.468;2023-04-24T02:44:02;99029.56;;;11.11;37.58
49178;BME280;35016;55.674;37.468;2023-04-24T02:46:29;99034.44;;;11.14;37.82
49178;BME280;35016;55.674;37.468;2023-04-24T02:48:56;99040.41;;;11.16;37.81
49178;BME280;35016;55.674;37.468;2023-04-24T02:51:23;99042.84;;;11.17;37.79
49178;BME280;35016;55.674;37.468;2023-04-24T02:53:50;99044.47;;;11.18;37.59
49178;BME280;35016;55.674;37.468;2023-04-24T02:56:17;99049.63;;;11.20;37.53
49178;BME280;35016;55.674;37.468;2023-04-24T02:58:44;99046.06;;;11.25;37.61
49178;BME280;35016;55.674;37.468;2023-04-24T03:01:12;99047.41;;;11.27;38.12
49178;BME280;35016;55.674;37.468;2023-04-24T03:03:39;99053.66;;;11.33;37.58
49178;BME280;35016;55.674;37.468;2023-04-24T03:06:07;99046.88;;;11.35;37.68
49178;BME280;35016;55.674;37.468;2023-04-24T03:08:35;99049.56;;;11.40;37.21
49178;BME280;35016;55.674;37.468;2023-04-24T03:11:03;99051.47;;;11.45;37.27
49178;BME280;35016;55.674;37.468;2023-04-24T03:13:30;99055.53;;;11.47;37.17
49178;BME280;35016;55.674;37.468;2023-04-24T03:15:57;99056.06;;;11.49;37.13
49178;BME280;35016;55.674;37.468;2023-04-24T03:18:24;99062.28;;;11.55;37.76
49178;BME280;35016;55.674;37.468;2023-04-24T03:20:52;99043.84;;;11.57;37.43
49178;BME280;35016;55.674;37.468;2023-04-24T03:23:19;99055.75;;;11.66;37.31
49178;BME280;35016;55.674;37.468;2023-04-24T03:25:46;99054.09;;;11.70;37.26
49178;BME280;35016;55.674;37.468;2023-04-24T03:28:16;99060.59;;;11.74;36.87
49178;BME280;35016;55.674;37.468;2023-04-24T03:30:48;99062.50;;;11.79;37.44
49178;BME280;35016;55.674;37.468;2023-04-24T03:33:16;99046.72;;;11.81;37.24
49178;BME280;35016;55.674;37.468;2023-04-24T03:35:53;99052.69;;;11.83;37.09
49178;BME280;35016;55.674;37.468;2023-04-24T03:38:21;99049.72;;;11.90;36.81
49178;BME280;35016;55.674;37.468;2023-04-24T03:41:00;99059.16;;;11.97;37.11
49178;BME280;35016;55.674;37.468;2023-04-24T03:43:53;99055.34;;;12.03;36.87
49178;BME280;35016;55.674;37.468;2023-04-24T03:46:20;99064.53;;;12.07;36.71
49178;BME280;35016;55.674;37.468;2023-04-24T03:48:53;99059.38;;;12.11;37.07
49178;BME280;35016;55.674;37.468;2023-04-24T03:51:25;99065.31;;;12.18;36.20
49178;BME280;35016;55.674;37.468;2023-04-24T03:53:59;99063.66;;;12.22;37.08
49178;BME280;35016;55.674;37.468;2023-04-24T03:56:29;99069.59;;;12.29;36.22
49178;BME280;35016;55.674;37.468;2023-04-24T03:58:56;99073.38;;;12.33;36.87
49178;BME280;35016;55.674;37.468;2023-04-24T04:01:23;99070.63;;;12.38;36.83
49178;BME280;35016;55.674;37.468;2023-04-24T04:03:57;99074.41;;;12.43;36.68
49178;BME280;35016;55.674;37.468;2023-04-24T04:06:26;99082.56;;;12.48;36.60
49178;BME280;35016;55.674;37.468;2023-04-24T04:08:54;99077.88;;;12.53;36.38
49178;BME280;35016;55.674;37.468;2023-04-24T04:11:21;99083.28;;;12.58;36.62
49178;BME280;35016;55.674;37.468;2023-04-24T04:13:49;99075.38;;;12.62;35.99
49178;BME280;35016;55.674;37.468;2023-04-24T04:16:19;99076.66;;;12.69;36.11
49178;BME280;35016;55.674;37.468;2023-04-24T04:18:50;99076.13;;;12.73;36.31
49178;BME280;35016;55.674;37.468;2023-04-24T04:21:17;99080.66;;;12.82;36.42
49178;BME280;35016;55.674;37.468;2023-04-24T04:23:44;99078.41;;;12.89;35.80
49178;BME280;35016;55.674;37.468;2023-04-24T04:26:16;99080.00;;;12.95;35.94
49178;BME280;35016;55.674;37.468;2023-04-24T04:29:13;99087.56;;;13.03;36.27
49178;BME280;35016;55.674;37.468;2023-04-24T04:31:44;99089.16;;;13.10;35.67
49178;BME280;35016;55.674;37.468;2023-04-24T04:34:13;99088.00;;;13.16;35.69
49178;BME280;35016;55.674;37.468;2023-04-24T04:36:42;99089.31;;;13.23;35.69
49178;BME280;35016;55.674;37.468;2023-04-24T04:39:27;99089.53;;;13.32;35.64
49178;BME280;35016;55.674;37.468;2023-04-24T04:42:02;99087.78;;;13.41;35.65
49178;BME280;35016;55.674;37.468;2023-04-24T04:44:35;99084.72;;;13.48;35.63
49178;BME280;35016;55.674;37.468;2023-04-24T04:47:04;99089.53;;;13.56;35.59
49178;BME280;35016;55.674;37.468;2023-04-24T04:49:34;99090.53;;;13.65;35.21
49178;BME280;35016;55.674;37.468;2023-04-24T04:52:03;99088.78;;;13.74;35.30
49178;BME280;35016;55.674;37.468;2023-04-24T04:54:30;99091.69;;;13.83;35.00
49178;BME280;35016;55.674;37.468;2023-04-24T04:56:58;99092.38;;;13.93;35.38
49178;BME280;35016;55.674;37.468;2023-04-24T04:59:26;99099.91;;;14.02;34.86
49178;BME280;35016;55.674;37.468;2023-04-24T05:02:00;99099.25;;;14.10;34.82
49178;BME280;35016;55.674;37.468;2023-04-24T05:04:27;99104.09;;;14.18;34.62
49178;BME280;35016;55.674;37.468;2023-04-24T05:06:55;99096.34;;;14.25;34.61
49178;BME280;35016;55.674;37.468;2023-04-24T05:09:24;99099.22;;;14.34;34.70
49178;BME280;35016;55.674;37.468;2023-04-24T05:11:58;99104.81;;;14.42;34.73
49178;BME280;35016;55.674;37.468;2023-04-24T05:14:26;99099.88;;;14.49;34.49
49178;BME280;35016;55.674;37.468;2023-04-24T05:16:53;99100.59;;;14.55;34.59
49178;BME280;35016;55.674;37.468;2023-04-24T05:19:23;99105.31;;;14.68;34.18
49178;BME280;35016;55.674;37.468;2023-04-24T05:21:50;99100.31;;;14.75;34.38
49178;BME280;35016;55.674;37.468;2023-04-24T05:24:17;99101.97;;;14.90;34.13
49178;BME280;35016;55.674;37.468;2023-04-24T05:26:45;99101.59;;;14.97;33.82
49178;BME280;35016;55.674;37.468;2023-04-24T05:29:14;99100.13;;;15.04;33.90
49178;BME280;35016;55.674;37.468;2023-04-24T05:31:42;99099.72;;;15.11;33.61
49178;BME280;35016;55.674;37.468;2023-04-24T05:34:09;99108.34;;;15.18;33.54
49178;BME280;35016;55.674;37.468;2023-04-24T05:36:40;99114.72;;;15.27;33.51
49178;BME280;35016;55.674;37.468;2023-04-24T05:39:08;99103.44;;;15.34;33.54
49178;BME280;35016;55.674;37.468;2023-04-24T05:41:35;99099.19;;;15.41;33.36
49178;BME280;35016;55.674;37.468;2023-04-24T05:44:02;99096.56;;;15.50;33.10
49178;BME280;35016;55.674;37.468;2023-04-24T05:46:30;99096.16;;;15.57;33.20
49178;BME280;35016;55.674;37.468;2023-04-24T05:48:57;99103.22;;;15.63;33.04
49178;BME280;35016;55.674;37.468;2023-04-24T05:51:24;99105.03;;;15.67;32.74
49178;BME280;35016;55.674;37.468;2023-04-24T05:53:52;99095.31;;;15.75;32.84
49178;BME280;35016;55.674;37.468;2023-04-24T05:56:20;99098.13;;;15.84;32.89
49178;BME280;35016;55.674;37.468;2023-04-24T05:58:48;99095.03;;;15.90;32.88
49178;BME280;35016;55.674;37.468;2023-04-24T06:01:15;99094.09;;;15.95;32.92
49178;BME280;35016;55.674;37.468;2023-04-24T06:03:46;99098.84;;;16.03;32.85
49178;BME280;35016;55.674;37.468;2023-04-24T06:06:14;99104.53;;;16.06;32.73
49178;BME280;35016;55.674;37.468;2023-04-24T06:08:42;99093.47;;;16.11;32.44
49178;BME280;35016;55.674;37.468;2023-04-24T06:11:11;99097.31;;;16.10;32.42
49178;BME280;35016;55.674;37.468;2023-04-24T06:13:39;99097.72;;;16.18;32.29
49178;BME280;35016;55.674;37.468;2023-04-24T06:16:35;99097.63;;;16.23;32.65
49178;BME280;35016;55.674;37.468;2023-04-24T06:19:14;99102.38;;;16.31;32.41
49178;BME280;35016;55.674;37.468;2023-04-24T06:21:41;99102.75;;;16.38;32.51
49178;BME280;35016;55.674;37.468;2023-04-24T06:24:09;99098.16;;;16.47;32.53
49178;BME280;35016;55.674;37.468;2023-04-24T06:26:36;99096.66;;;16.55;32.51
49178;BME280;35016;55.674;37.468;2023-04-24T06:29:03;99103.31;;;16.62;32.42
49178;BME280;35016;55.674;37.468;2023-04-24T06:31:30;99101.78;;;16.70;32.27
49178;BME280;35016;55.674;37.468;2023-04-24T06:34:01;99098.13;;;16.75;32.21
49178;BME280;35016;55.674;37.468;2023-04-24T06:36:29;99102.88;;;16.83;31.85
49178;BME280;35016;55.674;37.468;2023-04-24T06:38:58;99109.34;;;16.87;31.83
49178;BME280;35016;55.674;37.468;2023-04-24T06:41:25;99102.13;;;16.91;31.73
49178;BME280;35016;55.674;37.468;2023-04-24T06:43:52;99097.00;;;16.98;31.38
49178;BME280;35016;55.674;37.468;2023-04-24T06:46:19;99100.44;;;17.03;31.43
49178;BME280;35016;55.674;37.468;2023-04-24T06:48:49;99109.84;;;17.11;31.47
49178;BME280;35016;55.674;37.468;2023-04-24T06:51:17;99103.94;;;17.18;31.30
49178;BME280;35016;55.674;37.468;2023-04-24T06:53:45;99108.03;;;17.29;31.25
49178;BME280;35016;55.674;37.468;2023-04-24T06:56:14;99114.69;;;17.37;31.20
49178;BME280;35016;55.674;37.468;2023-04-24T06:58:43;99113.63;;;17.46;30.73
49178;BME280;35016;55.674;37.468;2023-04-24T07:01:11;99107.19;;;17.51;31.11
49178;BME280;35016;55.674;37.468;2023-04-24T07:03:40;99114.78;;;17.54;30.65
49178;BME280;35016;55.674;37.468;2023-04-24T07:06:10;99111.09;;;17.58;30.44
49178;BME280;35016;55.674;37.468;2023-04-24T07:08:38;99111.28;;;17.62;30.37
49178;BME280;35016;55.674;37.468;2023-04-24T07:11:05;99107.41;;;17.63;30.52
49178;BME280;35016;55.674;37.468;2023-04-24T07:13:35;99115.53;;;17.68;30.48
49178;BME280;35016;55.674;37.468;2023-04-24T07:16:02;99123.94;;;17.72;30.34
49178;BME280;35016;55.674;37.468;2023-04-24T07:18:29;99125.91;;;17.80;30.23
49178;BME280;35016;55.674;37.468;2023-04-24T07:20:57;99117.72;;;17.88;30.49
49178;BME280;35016;55.674;37.468;2023-04-24T07:23:27;99121.31;;;17.98;30.13
49178;BME280;35016;55.674;37.468;2023-04-24T07:25:54;99118.91;;;18.05;29.92
49178;BME280;35016;55.674;37.468;2023-04-24T07:28:24;99117.47;;;18.07;29.95
49178;BME280;35016;55.674;37.468;2023-04-24T07:30:53;99122.31;;;18.10;29.94
49178;BME280;35016;55.674;37.468;2023-04-24T07:33:21;99120.06;;;18.12;29.67
49178;BME280;35016;55.674;37.468;2023-04-24T07:35:48;99116.69;;;18.15;29.35
49178;BME280;35016;55.674;37.468;2023-04-24T07:38:15;99109.75;;;18.18;29.33
49178;BME280;35016;55.674;37.468;2023-04-24T07:40:42;99117.84;;;18.23;29.22
49178;BME280;35016;55.674;37.468;2023-04-24T07:43:11;99110.75;;;18.31;29.00
49178;BME280;35016;55.674;37.468;2023-04-24T07:45:38;99103.50;;;18.43;28.80
49178;BME280;35016;55.674;37.468;2023-04-24T07:48:06;99106.75;;;18.54;28.69
49178;BME280;35016;55.674;37.468;2023-04-24T07:50:35;99110.81;;;18.65;28.53
49178;BME280;35016;55.674;37.468;2023-04-24T07:53:03;99112.59;;;18.78;28.23
49178;BME280;35016;55.674;37.468;2023-04-24T07:55:30;99096.94;;;18.87;27.99
49178;BME280;35016;55.674;37.468;2023-04-24T07:57:57;99101.63;;;18.96;27.79
49178;BME280;35016;55.674;37.468;2023-04-24T08:00:24;99095.31;;;19.12;27.65
49178;BME280;35016;55.674;37.468;2023-04-24T08:02:51;99094.94;;;19.31;27.51
49178;BME280;35016;55.674;37.468;2023-04-24T08:05:19;99101.53;;;19.47;27.33
49178;BME280;35016;55.674;37.468;2023-04-24T08:07:46;99111.41;;;19.57;26.94
49178;BME280;35016;55.674;37.468;2023-04-24T08:10:15;99107.03;;;19.56;26.76
49178;BME280;35016;55.674;37.468;2023-04-24T08:12:42;99103.44;;;19.64;26.40
49178;BME280;35016;55.674;37.468;2023-04-24T08:15:10;99106.31;;;19.76;25.98
49178;BME280;35016;55.674;37.468;2023-04-24T08:17:37;99107.56;;;19.88;25.68
49178;BME280;35016;55.674;37.468;2023-04-24T08:20:04;99105.75;;;20.00;25.47
49178;BME280;35016;55.674;37.468;2023-04-24T08:22:32;99095.47;;;20.09;25.23
49178;BME280;35016;55.674;37.468;2023-04-24T08:24:59;99089.31;;;20.13;25.04
49178;BME280;35016;55.674;37.468;2023-04-24T08:27:28;99096.72;;;20.21;24.99
49178;BME280;35016;55.674;37.468;2023-04-24T08:29:57;99091.50;;;20.28;24.85
49178;BME280;35016;55.674;37.468;2023-04-24T08:32:24;99092.91;;;20.34;24.83
49178;BME280;35016;55.674;37.468;2023-04-24T08:34:51;99081.88;;;20.42;24.62
49178;BME280;35016;55.674;37.468;2023-04-24T08:37:20;99086.50;;;20.51;24.46
49178;BME280;35016;55.674;37.468;2023-04-24T08:39:47;99073.69;;;20.55;24.40
49178;BME280;35016;55.674;37.468;2023-04-24T08:42:14;99080.94;;;20.59;24.35
49178;BME280;35016;55.674;37.468;2023-04-24T08:44:42;99073.88;;;20.70;24.40
49178;BME280;35016;55.674;37.468;2023-04-24T08:47:10;99064.53;;;20.84;24.18
49178;BME280;35016;55.674;37.468;2023-04-24T08:49:41;99064.22;;;20.97;24.36
49178;BME280;35016;55.674;37.468;2023-04-24T08:52:09;99068.97;;;21.09;24.09
49178;BME280;35016;55.674;37.468;2023-04-24T08:54:36;99059.16;;;21.20;23.92
49178;BME280;35016;55.674;37.468;2023-04-24T08:57:07;99054.38;;;21.29;23.71
49178;BME280;35016;55.674;37.468;2023-04-24T08:59:34;99061.88;;;21.41;23.57
49178;BME280;35016;55.674;37.468;2023-04-24T09:02:03;99058.56;;;21.48;23.46
49178;BME280;35016;55.674;37.468;2023-04-24T09:04:33;99062.34;;;21.55;23.49
49178;BME280;35016;55.674;37.468;2023-04-24T09:07:01;99055.00;;;21.59;23.51
49178;BME280;35016;55.674;37.468;2023-04-24T09:09:30;99053.63;;;21.65;23.21
49178;BME280;35016;55.674;37.468;2023-04-24T09:11:59;99052.25;;;21.72;23.19
49178;BME280;35016;55.674;37.468;2023-04-24T09:14:27;99041.91;;;21.81;23.19
49178;BME280;35016;55.674;37.468;2023-04-24T09:16:54;99039.72;;;21.99;23.02
49178;BME280;35016;55.674;37.468;2023-04-24T09:19:21;99041.56;;;22.19;22.88
49178;BME280;35016;55.674;37.468;2023-04-24T09:21:49;99043.28;;;22.36;22.68
49178;BME280;35016;55.674;37.468;2023-04-24T09:24:18;99034.34;;;22.54;22.50
49178;BME280;35016;55.674;37.468;2023-04-24T09:26:56;99048.50;;;22.65;22.03
49178;BME280;35016;55.674;37.468;2023-04-24T09:29:25;99039.84;;;22.67;22.32
49178;BME280;35016;55.674;37.468;2023-04-24T09:31:52;99022.56;;;22.70;22.13
49178;BME280;35016;55.674;37.468;2023-04-24T09:34:24;99041.44;;;22.68;21.64
49178;BME280;35016;55.674;37.468;2023-04-24T09:36:51;99019.59;;;22.63;22.07
49178;BME280;35016;55.674;37.468;2023-04-24T09:39:18;99032.72;;;22.53;21.80
49178;BME280;35016;55.674;37.468;2023-04-24T09:41:51;99030.16;;;22.33;21.93
49178;BME280;35016;55.674;37.468;2023-04-24T09:44:24;99023.84;;;22.20;22.10
49178;BME280;35016;55.674;37.468;2023-04-24T09:46:55;99023.03;;;22.19;22.02
49178;BME280;35016;55.674;37.468;2023-04-24T09:49:29;99023.72;;;22.29;22.01
49178;BME280;35016;55.674;37.468;2023-04-24T09:52:04;99020.56;;;22.42;21.57
49178;BME280;35016;55.674;37.468;2023-04-24T09:54:32;99011.56;;;22.45;21.86
49178;BME280;35016;55.674;37.468;2023-04-24T09:56:59;99014.19;;;22.54;21.47
49178;BME280;35016;55.674;37.468;2023-04-24T09:59:27;99008.44;;;22.59;21.55
49178;BME280;35016;55.674;37.468;2023-04-24T10:01:54;99010.25;;;22.67;21.38
49178;BME280;35016;55.674;37.468;2023-04-24T10:04:26;99011.50;;;22.70;21.12
49178;BME280;35016;55.674;37.468;2023-04-24T10:06:55;99013.09;;;22.71;21.22
49178;BME280;35016;55.674;37.468;2023-04-24T10:09:24;99012.63;;;22.81;21.28
49178;BME280;35016;55.674;37.468;2023-04-24T10:11:52;99020.97;;;22.97;21.06
49178;BME280;35016;55.674;37.468;2023-04-24T10:14:22;99005.00;;;23.06;20.97
49178;BME280;35016;55.674;37.468;2023-04-24T10:16:50;99007.06;;;23.09;20.96
49178;BME280;35016;55.674;37.468;2023-04-24T10:19:19;99009.34;;;23.19;20.83
49178;BME280;35016;55.674;37.468;2023-04-24T10:21:47;99000.31;;;23.22;20.90
49178;BME280;35016;55.674;37.468;2023-04-24T10:24:15;99009.69;;;23.17;21.02
49178;BME280;35016;55.674;37.468;2023-04-24T10:26:44;99011.34;;;23.06;21.18
49178;BME280;35016;55.674;37.468;2023-04-24T10:29:13;98993.75;;;22.99;21.05
49178;BME280;35016;55.674;37.468;2023-04-24T10:31:42;98990.00;;;22.91;21.07
49178;BME280;35016;55.674;37.468;2023-04-24T10:34:13;98990.81;;;22.79;20.98
49178;BME280;35016;55.674;37.468;2023-04-24T10:36:50;98994.91;;;22.70;20.99
49178;BME280;35016;55.674;37.468;2023-04-24T10:39:21;98986.88;;;22.65;21.25
49178;BME280;35016;55.674;37.468;2023-04-24T10:41:54;98995.97;;;22.65;21.16
49178;BME280;35016;55.674;37.468;2023-04-24T10:44:24;98991.44;;;22.73;21.15
49178;BME280;35016;55.674;37.468;2023-04-24T10:46:55;98987.03;;;22.84;20.83
49178;BME280;35016;55.674;37.468;2023-04-24T10:49:30;98977.97;;;22.99;20.77
49178;BME280;35016;55.674;37.468;2023-04-24T10:52:02;98982.72;;;23.14;20.79
49178;BME280;35016;55.674;37.468;2023-04-24T10:54:44;98983.28;;;23.20;20.62
49178;BME280;35016;55.674;37.468;2023-04-24T10:59:51;98972.88;;;22.85;20.87
49178;BME280;35016;55.674;37.468;2023-04-24T11:02:35;98969.50;;;22.92;20.78
49178;BME280;35016;55.674;37.468;2023-04-24T11:05:04;98977.63;;;23.01;21.05
49178;BME280;35016;55.674;37.468;2023-04-24T11:08:10;98981.94;;;23.14;20.60
49178;BME280;35016;55.674;37.468;2023-04-24T11:10:50;98981.13;;;23.13;20.42
49178;BME280;35016;55.674;37.468;2023-04-24T11:13:22;98968.16;;;23.02;20.80
49178;BME280;35016;55.674;37.468;2023-04-24T11:16:12;98970.03;;;22.98;20.64
49178;BME280;35016;55.674;37.468;2023-04-24T11:18:43;98969.75;;;22.87;20.50
49178;BME280;35016;55.674;37.468;2023-04-24T11:21:17;98964.91;;;22.84;20.79
49178;BME280;35016;55.674;37.468;2023-04-24T11:23:45;98969.88;;;22.78;20.67
49178;BME280;35016;55.674;37.468;2023-04-24T11:26:18;98966.41;;;22.81;20.36
49178;BME280;35016;55.674;37.468;2023-04-24T11:28:49;98959.06;;;22.85;20.74
49178;BME280;35016;55.674;37.468;2023-04-24T11:31:38;98955.13;;;22.86;20.62
49178;BME280;35016;55.674;37.468;2023-04-24T11:34:13;98956.38;;;22.89;20.58
49178;BME280;35016;55.674;37.468;2023-04-24T11:36:46;98945.59;;;23.00;20.48
49178;BME280;35016;55.674;37.468;2023-04-24T11:39:15;98940.22;;;23.07;20.55
49178;BME280;35016;55.674;37.468;2023-04-24T11:41:42;98954.88;;;23.07;20.46
49178;BME280;35016;55.674;37.468;2023-04-24T11:44:14;98938.63;;;23.06;20.39
49178;BME280;35016;55.674;37.468;2023-04-24T11:46:46;98930.41;;;22.94;20.60
49178;BME280;35016;55.674;37.468;2023-04-24T11:49:13;98931.59;;;22.93;20.53
49178;BME280;35016;55.674;37.468;2023-04-24T11:51:42;98926.78;;;22.77;20.42
49178;BME280;35016;55.674;37.468;2023-04-24T11:54:19;98919.19;;;22.59;20.77
49178;BME280;35016;55.674;37.468;2023-04-24T11:56:47;98923.19;;;22.61;20.90
49178;BME280;35016;55.674;37.468;2023-04-24T11:59:16;98920.50;;;23.08;20.51
49178;BME280;35016;55.674;37.468;2023-04-24T12:01:49;98921.97;;;23.85;20.05
49178;BME280;35016;55.674;37.468;2023-04-24T12:04:20;98903.44;;;24.62;19.66
49178;BME280;35016;55.674;37.468;2023-04-24T12:07:03;98912.59;;;25.31;18.83
49178;BME280;35016;55.674;37.468;2023-04-24T12:09:50;98914.13;;;25.29;18.88
49178;BME280;35016;55.674;37.468;2023-04-24T12:12:24;98918.31;;;24.96;19.07
49178;BME280;35016;55.674;37.468;2023-04-24T12:14:53;98904.75;;;24.91;19.25
49178;BME280;35016;55.674;37.468;2023-04-24T12:17:30;98902.72;;;25.60;18.33
49178;BME280;35016;55.674;37.468;2023-04-24T12:20:04;98904.38;;;26.51;18.02
49178;BME280;35016;55.674;37.468;2023-04-24T12:22:50;98913.41;;;27.67;17.01
49178;BME280;35016;55.674;37.468;2023-04-24T12:25:18;98902.31;;;28.54;17.29
49178;BME280;35016;55.674;37.468;2023-04-24T12:27:47;98905.25;;;29.39;16.65
49178;BME280;35016;55.674;37.468;2023-04-24T12:30:18;98905.97;;;30.11;16.26
49178;BME280;35016;55.674;37.468;2023-04-24T12:32:48;98899.25;;;30.81;15.77
49178;BME280;35016;55.674;37.468;2023-04-24T12:35:22;98902.94;;;31.30;14.39
49178;BME280;35016;55.674;37.468;2023-04-24T12:37:50;98889.03;;;31.12;15.37
49178;BME280;35016;55.674;37.468;2023-04-24T12:40:18;98889.56;;;30.93;15.23
49178;BME280;35016;55.674;37.468;2023-04-24T12:42:48;98900.34;;;30.98;15.24
49178;BME280;35016;55.674;37.468;2023-04-24T12:45:17;98887.47;;;31.08;14.64
49178;BME280;35016;55.674;37.468;2023-04-24T12:47:46;98876.97;;;31.16;14.48
49178;BME280;35016;55.674;37.468;2023-04-24T12:50:14;98884.41;;;31.40;14.53
49178;BME280;35016;55.674;37.468;2023-04-24T12:52:42;98887.25;;;31.81;14.05
49178;BME280;35016;55.674;37.468;2023-04-24T12:55:10;98879.91;;;32.25;13.85
49178;BME280;35016;55.674;37.468;2023-04-24T12:57:39;98884.06;;;32.47;13.89
49178;BME280;35016;55.674;37.468;2023-04-24T13:00:08;98882.97;;;32.68;13.54
49178;BME280;35016;55.674;37.468;2023-04-24T13:02:35;98870.31;;;32.83;13.41
49178;BME280;35016;55.674;37.468;2023-04-24T13:05:03;98860.84;;;33.01;13.20